createdAt,value
2022-12-31T00:01:27.165Z,15.80
2022-12-31T00:03:54.924Z,15.80
2022-12-31T00:06:32.345Z,15.80
2022-12-31T00:09:03.536Z,15.80
2022-12-31T00:11:31.646Z,15.80
2022-12-31T00:13:59.276Z,15.90
2022-12-31T00:16:33.701Z,15.90
2022-12-31T00:19:00.953Z,15.90
2022-12-31T00:21:31.017Z,15.90
2022-12-31T00:23:58.330Z,15.80
2022-12-31T00:26:28.506Z,15.80
2022-12-31T00:28:57.323Z,15.90
2022-12-31T00:31:28.866Z,15.80
2022-12-31T00:33:56.891Z,15.90
2022-12-31T00:36:36.884Z,16.00
2022-12-31T00:39:06.597Z,15.90
2022-12-31T00:41:33.470Z,15.90
2022-12-31T00:44:00.593Z,16.00
2022-12-31T00:46:28.041Z,16.00
2022-12-31T00:48:55.263Z,15.80
2022-12-31T00:51:27.337Z,15.90
2022-12-31T00:53:56.307Z,16.00
2022-12-31T00:56:26.666Z,16.20
2022-12-31T00:58:53.890Z,16.10
2022-12-31T01:01:39.596Z,16.00
2022-12-31T01:04:21.683Z,16.10
2022-12-31T01:06:48.839Z,16.00
2022-12-31T01:09:16.715Z,16.00
2022-12-31T01:11:43.911Z,16.00
2022-12-31T01:14:15.188Z,16.10
2022-12-31T01:16:44.359Z,16.20
2022-12-31T01:19:16.188Z,16.20
2022-12-31T01:21:44.895Z,16.20
2022-12-31T01:24:13.061Z,16.20
2022-12-31T01:26:40.181Z,16.10
2022-12-31T01:29:08.806Z,16.20
2022-12-31T01:31:36.473Z,16.20
2022-12-31T01:34:04.151Z,16.20
2022-12-31T01:36:33.439Z,16.30
2022-12-31T01:39:02.845Z,16.10
2022-12-31T01:41:37.205Z,16.20
2022-12-31T01:44:26.638Z,16.20
2022-12-31T01:46:54.087Z,16.10
2022-12-31T01:49:40.167Z,16.10
2022-12-31T01:52:18.624Z,16.40
2022-12-31T01:54:59.771Z,16.30
2022-12-31T01:57:27.386Z,16.10
2022-12-31T01:59:56.151Z,16.10
2022-12-31T02:02:51.799Z,16.30
2022-12-31T02:05:52.314Z,16.10
2022-12-31T02:08:42.287Z,16.10
2022-12-31T02:11:46.475Z,15.90
2022-12-31T02:14:15.836Z,15.90
2022-12-31T02:17:02.737Z,16.10
2022-12-31T02:20:19.513Z,16.00
2022-12-31T02:23:11.456Z,15.70
2022-12-31T02:26:01.778Z,15.90
2022-12-31T02:29:19.474Z,15.90
2022-12-31T02:32:00.705Z,16.00
2022-12-31T02:34:55.533Z,16.20
2022-12-31T02:37:24.142Z,15.80
2022-12-31T02:39:51.547Z,15.70
2022-12-31T02:42:18.391Z,15.80
2022-12-31T02:44:45.183Z,15.70
2022-12-31T02:47:22.412Z,15.80
2022-12-31T02:50:26.089Z,15.70
2022-12-31T02:53:15.983Z,15.60
2022-12-31T02:56:05.963Z,15.70
2022-12-31T02:59:21.510Z,16.00
2022-12-31T03:02:13.932Z,15.80
2022-12-31T03:04:48.992Z,15.60
2022-12-31T03:07:24.151Z,15.70
2022-12-31T03:09:51.162Z,15.60
2022-12-31T03:12:39.312Z,15.50
2022-12-31T03:15:20.086Z,15.40
2022-12-31T03:18:08.475Z,15.40
2022-12-31T03:21:01.285Z,15.90
2022-12-31T03:23:35.620Z,15.20
2022-12-31T03:26:10.011Z,15.30
2022-12-31T03:28:39.085Z,15.20
2022-12-31T03:31:06.609Z,15.30
2022-12-31T03:33:37.532Z,15.40
2022-12-31T03:36:07.868Z,15.30
2022-12-31T03:38:34.621Z,15.30
2022-12-31T03:41:01.428Z,15.30
2022-12-31T03:43:28.208Z,15.60
2022-12-31T03:45:55.267Z,15.20
2022-12-31T03:48:23.615Z,15.20
2022-12-31T03:50:51.133Z,15.30
2022-12-31T03:53:18.132Z,15.30
2022-12-31T03:55:44.883Z,15.50
2022-12-31T03:58:11.745Z,15.40
2022-12-31T04:00:38.637Z,15.30
2022-12-31T04:03:05.478Z,15.30
2022-12-31T04:05:33.588Z,15.30
2022-12-31T04:08:00.355Z,15.30
2022-12-31T04:10:27.134Z,15.30
2022-12-31T04:12:53.864Z,15.20
2022-12-31T04:15:21.827Z,15.30
2022-12-31T04:17:48.735Z,15.20
2022-12-31T04:20:16.578Z,15.20
2022-12-31T04:22:44.037Z,15.20
2022-12-31T04:25:11.405Z,15.30
2022-12-31T04:27:40.831Z,15.30
2022-12-31T04:30:08.581Z,15.50
2022-12-31T04:32:35.554Z,15.50
2022-12-31T04:35:02.360Z,15.50
2022-12-31T04:37:29.167Z,15.60
2022-12-31T04:39:59.068Z,15.70
2022-12-31T04:42:30.403Z,15.70
2022-12-31T04:44:57.148Z,15.70
2022-12-31T04:47:24.235Z,15.70
2022-12-31T04:49:51.268Z,15.80
2022-12-31T04:52:17.998Z,15.80
2022-12-31T04:54:44.772Z,15.90
2022-12-31T04:57:24.574Z,15.90
2022-12-31T04:59:57.878Z,15.80
2022-12-31T05:02:24.802Z,15.80
2022-12-31T05:04:51.629Z,15.80
2022-12-31T05:07:18.377Z,15.70
2022-12-31T05:09:45.124Z,15.90
2022-12-31T05:12:11.858Z,16.00
2022-12-31T05:14:38.619Z,15.70
2022-12-31T05:17:05.403Z,15.70
2022-12-31T05:19:32.183Z,15.80
2022-12-31T05:22:17.201Z,15.70
2022-12-31T05:24:44.040Z,15.70
2022-12-31T05:27:11.120Z,15.90
2022-12-31T05:29:37.869Z,15.60
2022-12-31T05:32:04.780Z,15.70
2022-12-31T05:34:31.518Z,15.80
2022-12-31T05:36:58.270Z,15.70
2022-12-31T05:39:25.026Z,15.70
2022-12-31T05:41:51.780Z,15.60
2022-12-31T05:44:18.600Z,15.70
2022-12-31T05:46:46.887Z,15.70
2022-12-31T05:49:13.661Z,15.80
2022-12-31T05:51:40.428Z,15.80
2022-12-31T05:54:07.277Z,15.80
2022-12-31T05:56:34.063Z,15.80
2022-12-31T05:59:00.830Z,15.90
2022-12-31T06:01:27.789Z,15.80
2022-12-31T06:03:54.680Z,15.90
2022-12-31T06:06:21.457Z,15.90
2022-12-31T06:08:52.225Z,16.00
2022-12-31T06:11:19.133Z,15.90
2022-12-31T06:13:45.866Z,15.90
2022-12-31T06:16:12.898Z,15.90
2022-12-31T06:18:39.697Z,16.10
2022-12-31T06:21:06.510Z,15.90
2022-12-31T06:23:33.372Z,16.00
2022-12-31T06:26:05.055Z,16.00
2022-12-31T06:28:31.892Z,16.00
2022-12-31T06:31:07.719Z,16.00
2022-12-31T06:33:35.225Z,16.00
2022-12-31T06:36:05.481Z,16.10
2022-12-31T06:38:34.615Z,16.00
2022-12-31T06:41:10.225Z,15.90
2022-12-31T06:43:39.007Z,16.00
2022-12-31T06:46:09.503Z,15.90
2022-12-31T06:48:38.132Z,16.10
2022-12-31T06:51:16.953Z,15.90
2022-12-31T06:53:49.240Z,15.80
2022-12-31T06:56:31.233Z,15.90
2022-12-31T06:59:00.977Z,15.90
2022-12-31T07:02:13.803Z,16.00
2022-12-31T07:04:52.194Z,16.10
2022-12-31T07:07:53.322Z,15.90
2022-12-31T07:10:45.830Z,16.00
2022-12-31T07:13:47.327Z,15.90
2022-12-31T07:16:29.286Z,16.00
2022-12-31T07:19:40.947Z,16.10
2022-12-31T07:22:13.424Z,16.10
2022-12-31T07:24:41.718Z,16.20
2022-12-31T07:28:08.137Z,16.20
2022-12-31T07:31:19.640Z,16.10
2022-12-31T07:34:09.758Z,16.20
2022-12-31T07:36:48.219Z,16.30
2022-12-31T07:39:23.502Z,16.10
2022-12-31T07:42:41.853Z,16.20
2022-12-31T07:45:29.713Z,16.30
2022-12-31T07:48:02.248Z,16.40
2022-12-31T07:50:30.328Z,16.50
2022-12-31T07:52:57.505Z,16.50
2022-12-31T07:55:24.335Z,16.40
2022-12-31T07:58:03.554Z,16.60
2022-12-31T08:00:31.506Z,16.50
2022-12-31T08:03:14.271Z,16.50
2022-12-31T08:06:11.166Z,16.60
2022-12-31T08:08:56.722Z,16.50
2022-12-31T08:11:49.286Z,16.60
2022-12-31T08:14:16.429Z,16.60
2022-12-31T08:16:43.619Z,16.70
2022-12-31T08:19:25.517Z,16.70
2022-12-31T08:22:25.494Z,16.60
2022-12-31T08:25:08.499Z,16.60
2022-12-31T08:27:43.212Z,16.80
2022-12-31T08:30:20.296Z,16.70
2022-12-31T08:33:05.505Z,16.70
2022-12-31T08:35:57.113Z,16.60
2022-12-31T08:38:40.938Z,16.70
2022-12-31T08:41:42.656Z,16.70
2022-12-31T08:45:04.451Z,16.80
2022-12-31T08:48:01.765Z,16.90
2022-12-31T08:50:29.933Z,16.70
2022-12-31T08:52:57.154Z,17.00
2022-12-31T08:55:24.494Z,16.90
2022-12-31T08:58:13.061Z,16.90
2022-12-31T09:00:41.737Z,16.90
2022-12-31T09:03:40.588Z,16.90
2022-12-31T09:06:25.955Z,16.90
2022-12-31T09:09:25.978Z,16.90
2022-12-31T09:12:30.057Z,17.10
2022-12-31T09:15:15.433Z,17.00
2022-12-31T09:17:49.986Z,17.20
2022-12-31T09:20:24.204Z,17.20
2022-12-31T09:22:52.104Z,17.30
2022-12-31T09:25:21.959Z,17.40
2022-12-31T09:28:09.484Z,17.30
2022-12-31T09:30:54.023Z,17.50
2022-12-31T09:33:51.196Z,17.30
2022-12-31T09:36:30.434Z,17.50
2022-12-31T09:39:12.791Z,17.40
2022-12-31T09:42:00.964Z,17.30
2022-12-31T09:44:48.733Z,17.70
2022-12-31T09:47:43.978Z,17.50
2022-12-31T09:50:35.637Z,17.60
2022-12-31T09:53:48.967Z,17.70
2022-12-31T09:57:01.780Z,18.10
2022-12-31T09:59:58.006Z,17.80
2022-12-31T10:02:56.597Z,17.70
2022-12-31T10:05:50.893Z,18.00
2022-12-31T10:08:46.173Z,17.60
2022-12-31T10:11:35.704Z,17.60
2022-12-31T10:14:52.076Z,17.80
2022-12-31T10:17:39.341Z,17.80
2022-12-31T10:20:45.477Z,18.30
2022-12-31T10:24:05.187Z,17.80
2022-12-31T10:27:05.853Z,18.10
2022-12-31T10:30:18.071Z,18.10
2022-12-31T10:33:21.679Z,18.10
2022-12-31T10:36:08.533Z,18.10
2022-12-31T10:39:22.182Z,18.30
2022-12-31T10:42:31.451Z,18.20
2022-12-31T10:45:28.055Z,18.40
2022-12-31T10:48:19.669Z,18.60
2022-12-31T10:51:31.891Z,18.60
2022-12-31T10:54:31.783Z,18.40
2022-12-31T10:57:42.390Z,18.70
2022-12-31T11:00:23.451Z,18.70
2022-12-31T11:03:09.241Z,19.00
2022-12-31T11:06:09.704Z,19.50
2022-12-31T11:09:00.372Z,19.10
2022-12-31T11:11:41.602Z,19.20
2022-12-31T11:14:29.950Z,19.20
2022-12-31T11:17:24.485Z,19.10
2022-12-31T11:20:28.269Z,19.10
2022-12-31T11:23:22.509Z,18.90
2022-12-31T11:26:07.364Z,19.20
2022-12-31T11:29:27.687Z,19.30
2022-12-31T11:32:38.958Z,19.30
2022-12-31T11:35:23.165Z,19.80
2022-12-31T11:37:58.709Z,19.60
2022-12-31T11:40:56.516Z,19.60
2022-12-31T11:44:28.768Z,19.70
2022-12-31T11:48:31.271Z,19.90
2022-12-31T11:52:07.406Z,20.00
2022-12-31T11:55:44.067Z,19.90
2022-12-31T11:58:47.215Z,19.90
2022-12-31T12:02:01.513Z,19.70
2022-12-31T12:05:02.729Z,19.60
2022-12-31T12:08:05.949Z,19.70
2022-12-31T12:11:42.514Z,19.50
2022-12-31T12:15:48.923Z,19.60
2022-12-31T12:22:04.668Z,19.40
2022-12-31T12:25:12.087Z,19.30
2022-12-31T12:28:05.496Z,19.30
2022-12-31T12:31:07.928Z,19.10
2022-12-31T12:33:46.660Z,19.20
2022-12-31T12:36:16.197Z,19.10
2022-12-31T12:38:43.972Z,19.40
2022-12-31T12:41:21.664Z,19.20
2022-12-31T12:43:48.425Z,19.20
2022-12-31T12:46:34.207Z,19.20
2022-12-31T12:49:02.592Z,19.10
2022-12-31T12:52:03.664Z,19.10
2022-12-31T12:55:04.192Z,19.00
2022-12-31T12:57:53.931Z,18.90
2022-12-31T13:00:39.397Z,19.00
2022-12-31T13:03:27.265Z,19.00
2022-12-31T13:06:47.932Z,19.00
2022-12-31T13:09:48.485Z,18.90
2022-12-31T13:13:05.315Z,18.90
2022-12-31T13:15:40.205Z,18.90
2022-12-31T13:18:44.471Z,18.80
2022-12-31T13:21:44.493Z,18.70
2022-12-31T13:24:45.776Z,18.90
2022-12-31T13:27:15.234Z,18.80
2022-12-31T13:29:44.419Z,18.90
2022-12-31T13:32:20.092Z,19.00
2022-12-31T13:34:51.476Z,18.80
2022-12-31T13:37:40.597Z,18.80
2022-12-31T13:40:41.287Z,18.80
2022-12-31T13:43:44.582Z,18.80
2022-12-31T13:46:41.567Z,19.00
2022-12-31T13:49:44.432Z,18.80
2022-12-31T13:52:38.764Z,18.90
2022-12-31T13:55:19.085Z,18.90
2022-12-31T13:57:52.977Z,18.90
2022-12-31T14:00:32.153Z,18.90
2022-12-31T14:03:23.877Z,19.00
2022-12-31T14:06:17.634Z,18.80
2022-12-31T14:08:45.914Z,18.80
2022-12-31T14:11:31.188Z,19.00
2022-12-31T14:14:30.320Z,18.80
2022-12-31T14:17:21.311Z,18.70
2022-12-31T14:19:58.063Z,18.80
2022-12-31T14:22:54.055Z,18.80
2022-12-31T14:25:25.208Z,18.60
2022-12-31T14:27:53.881Z,18.70
2022-12-31T14:30:23.601Z,18.70
2022-12-31T14:33:09.593Z,18.70
2022-12-31T14:35:58.007Z,18.70
2022-12-31T14:38:49.558Z,18.70
2022-12-31T14:41:49.593Z,18.70
2022-12-31T14:44:25.525Z,18.80
2022-12-31T14:47:22.007Z,18.80
2022-12-31T14:50:15.197Z,19.00
2022-12-31T14:53:08.336Z,18.60
2022-12-31T14:55:40.768Z,19.00
2022-12-31T14:58:39.391Z,18.90
2022-12-31T15:01:22.314Z,18.60
2022-12-31T15:03:51.932Z,18.80
2022-12-31T15:06:27.665Z,18.70
2022-12-31T15:09:31.876Z,18.70
2022-12-31T15:12:55.319Z,18.60
2022-12-31T15:15:56.827Z,18.70
2022-12-31T15:19:07.527Z,18.90
2022-12-31T15:21:51.553Z,18.60
2022-12-31T15:24:27.270Z,18.50
2022-12-31T15:27:06.479Z,18.60
2022-12-31T15:29:41.397Z,19.10
2022-12-31T15:32:21.001Z,18.70
2022-12-31T15:34:47.955Z,18.50
2022-12-31T15:37:35.071Z,18.90
2022-12-31T15:40:20.751Z,18.70
2022-12-31T15:43:09.762Z,19.10
2022-12-31T15:45:42.404Z,18.60
2022-12-31T15:48:35.248Z,18.50
2022-12-31T15:51:04.712Z,18.50
2022-12-31T15:53:46.944Z,18.80
2022-12-31T15:56:26.028Z,18.80
2022-12-31T15:58:58.845Z,18.60
2022-12-31T16:01:35.197Z,18.30
2022-12-31T16:04:21.043Z,18.20
2022-12-31T16:06:50.944Z,18.20
2022-12-31T16:09:26.504Z,18.20
2022-12-31T16:11:55.261Z,18.40
2022-12-31T16:14:39.573Z,18.90
2022-12-31T16:17:19.016Z,18.50
2022-12-31T16:19:47.135Z,18.50
2022-12-31T16:22:18.994Z,18.70
2022-12-31T16:25:29.217Z,18.20
2022-12-31T16:27:40.781Z,18.40
2022-12-31T16:30:24.120Z,18.30
2022-12-31T16:32:52.330Z,18.30
2022-12-31T16:35:26.797Z,18.30
2022-12-31T16:38:13.277Z,18.30
2022-12-31T16:40:43.834Z,18.30
2022-12-31T16:43:27.715Z,18.30
2022-12-31T16:46:11.847Z,18.50
2022-12-31T16:48:38.943Z,18.20
2022-12-31T16:51:05.998Z,18.30
2022-12-31T16:53:36.906Z,18.30
2022-12-31T16:56:11.159Z,18.30
2022-12-31T16:58:42.678Z,18.20
2022-12-31T17:01:17.765Z,18.20
2022-12-31T17:03:51.385Z,18.40
2022-12-31T17:06:20.502Z,18.30
2022-12-31T17:08:56.057Z,18.30
2022-12-31T17:11:24.295Z,18.40
2022-12-31T17:14:15.962Z,18.30
2022-12-31T17:17:06.756Z,18.40
2022-12-31T17:19:49.318Z,18.20
2022-12-31T17:22:39.554Z,18.30
2022-12-31T17:25:31.025Z,18.30
2022-12-31T17:28:07.800Z,18.20
2022-12-31T17:30:35.820Z,18.20
2022-12-31T17:33:07.990Z,18.20
2022-12-31T17:35:36.801Z,18.10
2022-12-31T17:38:32.320Z,17.90
2022-12-31T17:41:07.994Z,18.10
2022-12-31T17:43:37.330Z,18.10
2022-12-31T17:46:14.641Z,18.10
2022-12-31T17:48:42.318Z,18.00
2022-12-31T17:51:09.577Z,17.90
2022-12-31T17:53:36.418Z,17.80
2022-12-31T17:56:06.746Z,17.90
2022-12-31T17:58:36.548Z,17.80
2022-12-31T18:01:07.707Z,18.00
2022-12-31T18:03:34.917Z,17.90
2022-12-31T18:06:02.101Z,18.20
2022-12-31T18:08:29.061Z,17.90
2022-12-31T18:10:55.913Z,17.90
2022-12-31T18:13:25.184Z,18.10
2022-12-31T18:15:53.037Z,18.30
2022-12-31T18:18:26.326Z,18.50
2022-12-31T18:20:58.094Z,18.00
2022-12-31T18:23:51.916Z,17.80
2022-12-31T18:26:22.302Z,17.80
2022-12-31T18:28:50.060Z,17.90
2022-12-31T18:31:27.495Z,18.10
2022-12-31T18:33:57.079Z,17.80
2022-12-31T18:36:28.664Z,18.10
2022-12-31T18:38:55.484Z,18.00
2022-12-31T18:41:27.817Z,17.80
2022-12-31T18:43:55.379Z,18.20
2022-12-31T18:46:24.518Z,18.50
2022-12-31T18:48:51.585Z,18.00
2022-12-31T18:51:26.417Z,18.20
2022-12-31T18:53:58.138Z,18.10
2022-12-31T18:56:25.323Z,18.30
2022-12-31T18:58:52.331Z,18.30
2022-12-31T19:01:35.062Z,18.40
2022-12-31T19:04:05.022Z,18.40
2022-12-31T19:06:32.206Z,18.30
2022-12-31T19:09:01.134Z,18.50
2022-12-31T19:11:28.585Z,18.50
2022-12-31T19:13:55.751Z,18.40
2022-12-31T19:16:22.921Z,18.50
2022-12-31T19:18:50.755Z,18.60
2022-12-31T19:21:20.666Z,18.50
2022-12-31T19:23:48.082Z,18.50
2022-12-31T19:26:16.812Z,18.40
2022-12-31T19:28:44.892Z,18.50
2022-12-31T19:31:12.577Z,18.50
2022-12-31T19:33:39.898Z,18.40
2022-12-31T19:36:09.969Z,18.30
2022-12-31T19:38:37.114Z,18.40
2022-12-31T19:41:04.386Z,18.30
2022-12-31T19:43:31.533Z,18.30
2022-12-31T19:45:58.698Z,18.50
2022-12-31T19:48:32.629Z,18.40
2022-12-31T19:51:00.484Z,18.30
2022-12-31T19:53:28.465Z,18.30
2022-12-31T19:55:55.629Z,18.20
2022-12-31T19:58:27.559Z,18.30
2022-12-31T20:01:01.945Z,18.30
2022-12-31T20:03:30.051Z,17.80
2022-12-31T20:06:06.708Z,18.30
2022-12-31T20:08:34.833Z,18.10
2022-12-31T20:11:17.235Z,18.10
2022-12-31T20:13:45.116Z,17.90
2022-12-31T20:16:17.149Z,18.10
2022-12-31T20:18:45.809Z,18.00
2022-12-31T20:21:17.487Z,18.10
2022-12-31T20:23:44.734Z,17.60
2022-12-31T20:26:12.155Z,17.80
2022-12-31T20:28:39.373Z,17.60
2022-12-31T20:31:08.556Z,17.40
2022-12-31T20:33:35.904Z,17.20
2022-12-31T20:36:04.497Z,17.60
2022-12-31T20:38:31.908Z,17.30
2022-12-31T20:41:10.864Z,17.30
2022-12-31T20:43:38.284Z,17.90
2022-12-31T20:46:29.762Z,17.20
2022-12-31T20:48:58.765Z,17.20
2022-12-31T20:51:27.316Z,17.30
2022-12-31T20:53:56.386Z,17.40
2022-12-31T20:56:28.413Z,17.20
2022-12-31T20:58:55.888Z,17.10
2022-12-31T21:01:23.559Z,17.10
2022-12-31T21:04:07.134Z,17.30
2022-12-31T21:06:35.513Z,17.20
2022-12-31T21:09:04.541Z,17.00
2022-12-31T21:11:50.176Z,17.00
2022-12-31T21:14:17.351Z,16.80
2022-12-31T21:16:44.584Z,16.70
2022-12-31T21:19:11.786Z,16.70
2022-12-31T21:21:38.971Z,16.60
2022-12-31T21:24:06.442Z,16.80
2022-12-31T21:26:34.332Z,17.00
2022-12-31T21:29:01.519Z,17.00
2022-12-31T21:31:28.719Z,16.70
2022-12-31T21:33:55.894Z,16.60
2022-12-31T21:36:23.121Z,16.60
2022-12-31T21:38:50.285Z,16.60
2022-12-31T21:41:35.963Z,16.40
2022-12-31T21:44:03.534Z,16.70
2022-12-31T21:46:30.945Z,16.70
2022-12-31T21:48:59.545Z,16.80
2022-12-31T21:51:27.520Z,16.70
2022-12-31T21:53:54.889Z,16.60
2022-12-31T21:56:22.511Z,16.60
2022-12-31T21:59:14.551Z,16.70
2022-12-31T22:02:00.428Z,16.90
2022-12-31T22:05:01.928Z,17.00
2022-12-31T22:07:15.418Z,17.00
2022-12-31T22:09:42.610Z,16.80
2022-12-31T22:12:09.785Z,16.60
2022-12-31T22:14:36.932Z,16.50
2022-12-31T22:17:04.100Z,16.50
2022-12-31T22:19:31.237Z,16.60
2022-12-31T22:21:58.377Z,16.60
2022-12-31T22:24:25.521Z,16.40
2022-12-31T22:26:55.476Z,16.70
2022-12-31T22:29:23.548Z,16.70
2022-12-31T22:31:50.692Z,16.80
2022-12-31T22:34:18.004Z,16.40
2022-12-31T22:36:45.288Z,16.70
2022-12-31T22:39:43.276Z,16.80
2022-12-31T22:42:03.461Z,16.70
2022-12-31T22:44:30.599Z,16.60
2022-12-31T22:46:57.802Z,16.80
2022-12-31T22:49:25.705Z,16.80
2022-12-31T22:51:57.397Z,16.70
2022-12-31T22:54:26.017Z,16.70
2022-12-31T22:56:53.230Z,16.60
2022-12-31T22:59:20.395Z,16.60
2022-12-31T23:01:47.713Z,16.50
2022-12-31T23:04:14.991Z,16.50
2022-12-31T23:06:45.013Z,16.40
2022-12-31T23:09:32.139Z,16.50
2022-12-31T23:11:59.824Z,16.50
2022-12-31T23:14:45.463Z,16.40
2022-12-31T23:17:40.417Z,16.30
2022-12-31T23:20:30.432Z,16.40
2022-12-31T23:23:09.767Z,16.30
2022-12-31T23:25:46.117Z,16.20
2022-12-31T23:28:16.838Z,16.50
2022-12-31T23:30:44.179Z,16.50
2022-12-31T23:33:16.260Z,16.60
2022-12-31T23:35:43.563Z,16.30
2022-12-31T23:38:10.904Z,16.70
2022-12-31T23:40:38.067Z,16.40
2022-12-31T23:43:06.747Z,16.30
2022-12-31T23:45:34.555Z,16.90
2022-12-31T23:48:02.444Z,16.40
2022-12-31T23:50:29.607Z,16.20
2022-12-31T23:52:56.764Z,16.40
2022-12-31T23:55:23.918Z,16.20
2022-12-31T23:57:51.131Z,16.40
